createdAt,value
2023-02-25T00:00:21.246Z,0.68
2023-02-25T00:02:55.670Z,3.53
2023-02-25T00:05:31.319Z,0.25
2023-02-25T00:08:08.479Z,0.20
2023-02-25T00:10:40.418Z,0.30
2023-02-25T00:13:18.176Z,1.50
2023-02-25T00:15:51.204Z,1.25
2023-02-25T00:18:22.086Z,0.63
2023-02-25T00:20:53.479Z,0.43
2023-02-25T00:23:24.694Z,2.25
2023-02-25T00:26:03.294Z,1.33
2023-02-25T00:28:34.264Z,1.75
2023-02-25T00:31:10.813Z,1.48
2023-02-25T00:33:44.282Z,0.45
2023-02-25T00:36:30.064Z,0.95
2023-02-25T00:39:02.210Z,1.17
2023-02-25T00:41:34.784Z,1.27
2023-02-25T00:44:06.048Z,1.10
2023-02-25T00:46:36.813Z,1.42
2023-02-25T00:49:08.564Z,2.30
2023-02-25T00:51:44.367Z,2.17
2023-02-25T00:54:15.395Z,0.85
2023-02-25T00:56:46.266Z,0.98
2023-02-25T00:59:18.066Z,0.20
2023-02-25T01:01:49.198Z,0.45
2023-02-25T01:04:21.163Z,2.00
2023-02-25T01:06:52.215Z,0.20
2023-02-25T01:09:23.417Z,1.60
2023-02-25T01:11:56.204Z,0.98
2023-02-25T01:14:28.732Z,0.50
2023-02-25T01:17:03.670Z,0.55
2023-02-25T01:19:35.220Z,0.75
2023-02-25T01:22:05.885Z,1.00
2023-02-25T01:24:37.441Z,0.65
2023-02-25T01:27:08.612Z,0.77
2023-02-25T01:29:42.574Z,0.98
2023-02-25T01:32:16.807Z,1.58
2023-02-25T01:34:47.683Z,2.75
2023-02-25T01:37:18.544Z,0.88
2023-02-25T01:39:49.405Z,1.02
2023-02-25T01:42:22.094Z,2.30
2023-02-25T01:45:21.552Z,2.20
2023-02-25T01:48:07.917Z,0.73
2023-02-25T01:51:05.313Z,2.20
2023-02-25T01:53:46.567Z,1.48
2023-02-25T01:56:24.115Z,1.58
2023-02-25T01:58:56.163Z,0.60
2023-02-25T02:01:29.713Z,2.35
2023-02-25T02:04:00.950Z,0.45
2023-02-25T02:06:40.189Z,1.80
2023-02-25T02:09:16.967Z,1.48
2023-02-25T02:11:49.684Z,1.40
2023-02-25T02:14:35.806Z,1.17
2023-02-25T02:17:18.061Z,1.50
2023-02-25T02:19:59.744Z,2.60
2023-02-25T02:22:58.728Z,1.02
2023-02-25T02:25:54.832Z,1.52
2023-02-25T02:29:01.703Z,1.73
2023-02-25T02:31:32.561Z,2.08
2023-02-25T02:34:36.789Z,0.73
2023-02-25T02:37:21.333Z,1.83
2023-02-25T02:40:19.055Z,1.75
2023-02-25T02:43:21.525Z,1.45
2023-02-25T02:46:26.690Z,2.05
2023-02-25T02:49:18.166Z,1.35
2023-02-25T02:52:02.424Z,1.73
2023-02-25T02:54:38.826Z,1.58
2023-02-25T02:57:14.233Z,2.50
2023-02-25T03:00:00.186Z,2.42
2023-02-25T03:02:36.448Z,2.13
2023-02-25T03:05:13.766Z,0.82
2023-02-25T03:07:49.528Z,0.98
2023-02-25T03:10:24.948Z,0.75
2023-02-25T03:12:56.802Z,1.15
2023-02-25T03:15:31.719Z,0.65
2023-02-25T03:18:08.759Z,1.35
2023-02-25T03:20:50.464Z,1.48
2023-02-25T03:23:24.898Z,1.23
2023-02-25T03:26:00.056Z,0.60
2023-02-25T03:28:34.177Z,1.02
2023-02-25T03:31:28.524Z,1.02
2023-02-25T03:34:40.133Z,1.25
2023-02-25T03:37:21.440Z,0.80
2023-02-25T03:39:58.192Z,1.55
2023-02-25T03:42:36.066Z,1.40
2023-02-25T03:45:10.652Z,0.20
2023-02-25T03:47:42.483Z,0.43
2023-02-25T03:50:23.126Z,0.63
2023-02-25T03:52:54.028Z,0.63
2023-02-25T03:55:26.762Z,0.75
2023-02-25T03:57:57.478Z,0.52
2023-02-25T04:00:31.865Z,0.88
2023-02-25T04:03:04.744Z,2.15
2023-02-25T04:05:37.684Z,0.95
2023-02-25T04:08:17.487Z,1.35
2023-02-25T04:10:50.014Z,1.17
2023-02-25T04:13:22.986Z,0.80
2023-02-25T04:15:53.981Z,0.50
2023-02-25T04:18:27.012Z,0.70
2023-02-25T04:20:59.173Z,0.70
2023-02-25T04:23:30.742Z,0.95
2023-02-25T04:26:01.650Z,1.50
2023-02-25T04:28:33.839Z,1.08
2023-02-25T04:31:04.215Z,1.85
2023-02-25T04:33:35.044Z,0.47
2023-02-25T04:36:05.764Z,1.77
2023-02-25T04:38:36.463Z,0.50
2023-02-25T04:41:07.578Z,0.70
2023-02-25T04:43:39.181Z,1.02
2023-02-25T04:46:09.893Z,0.82
2023-02-25T04:48:41.643Z,1.40
2023-02-25T04:51:12.437Z,0.90
2023-02-25T04:53:45.396Z,1.88
2023-02-25T04:56:16.146Z,2.38
2023-02-25T04:58:47.613Z,1.80
2023-02-25T05:01:18.758Z,1.30
2023-02-25T05:03:50.348Z,1.13
2023-02-25T05:06:21.190Z,0.20
2023-02-25T05:08:52.981Z,1.90
2023-02-25T05:11:24.312Z,0.50
2023-02-25T05:13:57.641Z,1.90
2023-02-25T05:16:29.362Z,1.55
2023-02-25T05:19:00.232Z,0.57
2023-02-25T05:21:31.155Z,1.55
2023-02-25T05:24:02.343Z,2.05
2023-02-25T05:26:35.510Z,1.23
2023-02-25T05:29:07.559Z,1.20
2023-02-25T05:31:38.695Z,0.80
2023-02-25T05:34:09.499Z,1.23
2023-02-25T05:36:41.854Z,1.58
2023-02-25T05:39:16.256Z,2.53
2023-02-25T05:41:46.924Z,1.58
2023-02-25T05:44:18.552Z,2.55
2023-02-25T05:46:49.289Z,0.85
2023-02-25T05:49:20.130Z,2.65
2023-02-25T05:51:52.427Z,1.70
2023-02-25T05:54:22.719Z,0.47
2023-02-25T05:56:56.553Z,2.05
2023-02-25T05:59:27.223Z,1.13
2023-02-25T06:01:58.474Z,1.08
2023-02-25T06:04:28.765Z,1.60
2023-02-25T06:06:59.052Z,2.17
2023-02-25T06:09:29.824Z,1.33
2023-02-25T06:12:00.029Z,0.70
2023-02-25T06:14:30.620Z,1.83
2023-02-25T06:17:01.316Z,0.63
2023-02-25T06:19:32.520Z,0.47
2023-02-25T06:22:02.922Z,1.55
2023-02-25T06:24:33.248Z,0.65
2023-02-25T06:27:05.462Z,1.90
2023-02-25T06:29:36.238Z,2.13
2023-02-25T06:32:06.699Z,2.17
2023-02-25T06:34:37.316Z,2.22
2023-02-25T06:37:08.126Z,2.05
2023-02-25T06:39:38.405Z,0.90
2023-02-25T06:42:08.650Z,0.50
2023-02-25T06:44:39.066Z,1.83
2023-02-25T06:47:09.281Z,3.60
2023-02-25T06:49:39.620Z,1.90
2023-02-25T06:52:11.523Z,2.08
2023-02-25T06:54:42.196Z,3.03
2023-02-25T06:57:12.540Z,3.35
2023-02-25T06:59:43.293Z,2.60
2023-02-25T07:02:15.509Z,1.50
2023-02-25T07:04:45.860Z,3.38
2023-02-25T07:07:16.170Z,2.47
2023-02-25T07:09:47.738Z,2.20
2023-02-25T07:12:18.147Z,2.40
2023-02-25T07:14:48.660Z,0.98
2023-02-25T07:17:19.334Z,4.15
2023-02-25T07:19:49.621Z,2.63
2023-02-25T07:22:23.254Z,1.30
2023-02-25T07:24:54.439Z,2.95
2023-02-25T07:27:24.761Z,1.23
2023-02-25T07:29:57.853Z,2.28
2023-02-25T07:32:28.370Z,2.67
2023-02-25T07:34:58.751Z,0.93
2023-02-25T07:37:29.855Z,1.25
2023-02-25T07:40:03.302Z,1.83
2023-02-25T07:42:33.577Z,0.60
2023-02-25T07:45:03.901Z,1.15
2023-02-25T07:47:34.411Z,1.02
2023-02-25T07:50:05.218Z,2.15
2023-02-25T07:52:35.771Z,0.55
2023-02-25T07:55:09.937Z,3.13
2023-02-25T07:57:40.289Z,2.55
2023-02-25T08:00:12.267Z,1.75
2023-02-25T08:02:42.845Z,1.50
2023-02-25T08:05:13.876Z,1.50
2023-02-25T08:07:44.577Z,1.30
2023-02-25T08:10:14.924Z,1.95
2023-02-25T08:12:47.712Z,3.60
2023-02-25T08:15:18.255Z,2.10
2023-02-25T08:17:51.310Z,1.05
2023-02-25T08:20:21.803Z,2.38
2023-02-25T08:22:52.605Z,1.17
2023-02-25T08:25:23.191Z,2.05
2023-02-25T08:27:53.579Z,1.30
2023-02-25T08:30:24.082Z,1.05
2023-02-25T08:32:54.946Z,2.53
2023-02-25T08:35:27.728Z,0.82
2023-02-25T08:37:58.874Z,3.45
2023-02-25T08:40:29.689Z,1.77
2023-02-25T08:43:01.101Z,0.68
2023-02-25T08:45:32.112Z,0.75
2023-02-25T08:48:03.004Z,2.90
2023-02-25T08:50:36.858Z,5.20
2023-02-25T08:53:08.532Z,1.20
2023-02-25T08:55:42.488Z,1.52
2023-02-25T08:58:14.285Z,3.53
2023-02-25T09:00:45.555Z,1.92
2023-02-25T09:03:16.255Z,1.67
2023-02-25T09:05:52.905Z,1.95
2023-02-25T09:08:29.306Z,0.77
2023-02-25T09:13:29.939Z,2.40
2023-02-25T09:16:01.471Z,1.55
2023-02-25T09:18:33.241Z,2.55
2023-02-25T09:21:04.353Z,2.63
2023-02-25T09:23:35.061Z,2.03
2023-02-25T09:26:06.895Z,1.27
2023-02-25T09:28:37.653Z,2.30
2023-02-25T09:31:08.328Z,2.95
2023-02-25T09:33:43.599Z,2.97
2023-02-25T09:36:22.242Z,2.17
2023-02-25T09:38:53.738Z,1.40
2023-02-25T09:41:52.843Z,2.42
2023-02-25T09:44:39.470Z,4.22
2023-02-25T09:47:37.151Z,2.50
2023-02-25T09:50:15.999Z,0.88
2023-02-25T09:53:07.980Z,2.22
2023-02-25T09:55:41.623Z,2.75
2023-02-25T09:58:28.881Z,6.45
2023-02-25T10:01:19.890Z,6.90
2023-02-25T10:03:58.976Z,8.43
2023-02-25T10:06:51.663Z,10.15
2023-02-25T10:09:52.448Z,7.82
2023-02-25T10:12:42.157Z,7.65
2023-02-25T10:15:27.966Z,11.00
2023-02-25T10:18:32.925Z,13.93
2023-02-25T10:21:13.730Z,14.20
2023-02-25T10:24:05.578Z,13.90
2023-02-25T10:26:47.204Z,15.27
2023-02-25T10:29:36.784Z,14.27
2023-02-25T10:32:21.567Z,16.67
2023-02-25T10:34:54.911Z,16.60
2023-02-25T10:37:37.460Z,11.40
2023-02-25T10:40:14.550Z,10.88
2023-02-25T10:42:50.773Z,6.88
2023-02-25T10:45:31.819Z,7.57
2023-02-25T10:48:26.474Z,8.05
2023-02-25T10:51:19.019Z,7.68
2023-02-25T10:54:01.797Z,9.18
2023-02-25T10:56:46.553Z,10.30
2023-02-25T10:59:23.435Z,8.77
2023-02-25T11:01:55.052Z,9.18
2023-02-25T11:04:35.505Z,8.35
2023-02-25T11:07:36.818Z,10.20
2023-02-25T11:10:18.902Z,8.07
2023-02-25T11:12:52.092Z,13.82
2023-02-25T11:15:46.262Z,13.63
2023-02-25T11:18:36.291Z,11.18
2023-02-25T11:21:10.436Z,8.57
2023-02-25T11:23:48.307Z,9.57
2023-02-25T11:26:31.906Z,12.35
2023-02-25T11:29:08.814Z,6.03
2023-02-25T11:31:43.299Z,9.68
2023-02-25T11:34:26.436Z,7.38
2023-02-25T11:36:57.364Z,9.82
2023-02-25T11:39:36.711Z,6.93
2023-02-25T11:42:27.192Z,11.32
2023-02-25T11:45:06.164Z,8.45
2023-02-25T11:47:40.332Z,7.88
2023-02-25T11:50:31.674Z,7.72
2023-02-25T11:53:08.812Z,6.95
2023-02-25T11:55:48.698Z,5.97
2023-02-25T11:58:36.362Z,7.35
2023-02-25T12:01:27.053Z,4.13
2023-02-25T12:04:13.005Z,8.15
2023-02-25T12:07:17.269Z,10.57
2023-02-25T12:09:57.718Z,8.23
2023-02-25T12:12:46.898Z,6.55
2023-02-25T12:15:47.264Z,4.25
2023-02-25T12:18:30.769Z,5.45
2023-02-25T12:21:45.760Z,7.13
2023-02-25T12:24:25.332Z,5.40
2023-02-25T12:27:36.184Z,7.70
2023-02-25T12:30:30.896Z,8.25
2023-02-25T12:33:28.920Z,11.20
2023-02-25T12:36:30.353Z,11.77
2023-02-25T12:39:29.904Z,8.32
2023-02-25T12:42:25.930Z,7.82
2023-02-25T12:45:29.174Z,4.93
2023-02-25T12:48:27.315Z,8.45
2023-02-25T12:51:24.594Z,2.85
2023-02-25T12:54:41.483Z,4.35
2023-02-25T12:57:37.106Z,4.75
2023-02-25T13:00:33.717Z,4.55
2023-02-25T13:03:17.677Z,4.00
2023-02-25T13:06:22.884Z,4.60
2023-02-25T13:09:23.118Z,4.30
2023-02-25T13:12:21.384Z,6.32
2023-02-25T13:15:10.980Z,7.60
2023-02-25T13:18:18.647Z,7.00
2023-02-25T13:21:17.268Z,2.72
2023-02-25T13:24:00.046Z,4.78
2023-02-25T13:26:45.291Z,7.25
2023-02-25T13:29:30.954Z,3.33
2023-02-25T13:32:23.710Z,7.30
2023-02-25T13:35:26.364Z,3.88
2023-02-25T13:38:04.205Z,8.00
2023-02-25T13:40:53.391Z,6.22
2023-02-25T13:43:52.314Z,5.05
2023-02-25T13:46:37.573Z,10.52
2023-02-25T13:49:36.153Z,3.45
2023-02-25T13:52:14.612Z,3.33
2023-02-25T13:55:16.119Z,6.03
2023-02-25T13:57:57.628Z,3.78
2023-02-25T14:00:34.650Z,7.15
2023-02-25T14:06:15.861Z,7.25
2023-02-25T14:08:49.386Z,7.07
2023-02-25T14:11:46.050Z,6.93
2023-02-25T14:14:35.846Z,6.43
2023-02-25T14:17:29.504Z,6.00
2023-02-25T14:20:06.186Z,3.85
2023-02-25T14:22:47.462Z,3.47
2023-02-25T14:25:42.709Z,4.28
2023-02-25T14:28:26.777Z,5.60
2023-02-25T14:31:09.783Z,5.78
2023-02-25T14:33:47.543Z,6.18
2023-02-25T14:36:25.271Z,8.98
2023-02-25T14:39:08.081Z,8.00
2023-02-25T14:41:49.163Z,2.67
2023-02-25T14:44:52.880Z,4.53
2023-02-25T14:47:26.785Z,5.82
2023-02-25T14:50:38.642Z,5.70
2023-02-25T14:53:32.927Z,4.32
2023-02-25T14:56:20.505Z,4.90
2023-02-25T14:59:09.384Z,4.43
2023-02-25T15:02:01.838Z,5.38
2023-02-25T15:05:03.170Z,5.15
2023-02-25T15:07:40.036Z,6.47
2023-02-25T15:10:29.871Z,3.63
2023-02-25T15:13:18.792Z,4.93
2023-02-25T15:15:54.891Z,3.50
2023-02-25T15:19:02.098Z,5.10
2023-02-25T15:21:42.924Z,5.20
2023-02-25T15:24:41.697Z,3.72
2023-02-25T15:27:49.273Z,5.30
2023-02-25T15:30:24.888Z,6.18
2023-02-25T15:33:10.334Z,4.05
2023-02-25T15:35:40.878Z,4.22
2023-02-25T15:38:21.646Z,4.47
2023-02-25T15:40:57.385Z,6.63
2023-02-25T15:43:44.238Z,3.10
2023-02-25T15:46:14.518Z,4.32
2023-02-25T15:48:46.523Z,3.78
2023-02-25T15:51:47.278Z,3.53
2023-02-25T15:54:46.211Z,5.95
2023-02-25T15:57:38.647Z,3.70
2023-02-25T16:00:47.784Z,3.40
2023-02-25T16:03:44.311Z,3.70
2023-02-25T16:06:20.662Z,4.00
2023-02-25T16:08:50.940Z,5.57
2023-02-25T16:11:43.000Z,4.57
2023-02-25T16:14:33.116Z,3.70
2023-02-25T16:17:25.157Z,3.92
2023-02-25T16:20:00.869Z,4.55
2023-02-25T16:22:32.570Z,3.53
2023-02-25T16:25:04.026Z,7.22
2023-02-25T16:27:56.074Z,3.40
2023-02-25T16:30:34.921Z,2.80
2023-02-25T16:33:46.484Z,3.25
2023-02-25T16:36:25.285Z,5.25
2023-02-25T16:39:19.573Z,4.15
2023-02-25T16:41:50.626Z,3.67
2023-02-25T16:44:32.840Z,2.75
2023-02-25T16:47:03.299Z,3.53
2023-02-25T16:49:47.272Z,3.25
2023-02-25T16:52:23.956Z,3.95
2023-02-25T16:57:28.105Z,4.57
2023-02-25T17:00:19.294Z,3.85
2023-02-25T17:02:53.207Z,2.55
2023-02-25T17:05:35.305Z,2.85
2023-02-25T17:08:12.334Z,3.92
2023-02-25T17:10:53.920Z,3.72
2023-02-25T17:13:33.111Z,2.63
2023-02-25T17:16:05.845Z,3.53
2023-02-25T17:18:47.423Z,2.13
2023-02-25T17:21:38.583Z,6.00
2023-02-25T17:24:15.107Z,4.43
2023-02-25T17:26:47.957Z,2.30
2023-02-25T17:29:20.119Z,3.47
2023-02-25T17:31:54.534Z,4.53
2023-02-25T17:34:36.854Z,3.97
2023-02-25T17:37:10.828Z,2.78
2023-02-25T17:39:44.411Z,3.67
2023-02-25T17:42:37.748Z,2.40
2023-02-25T17:45:29.058Z,5.00
2023-02-25T17:47:59.842Z,9.15
2023-02-25T17:50:34.334Z,3.63
2023-02-25T17:53:04.673Z,2.80
2023-02-25T17:55:37.766Z,3.47
2023-02-25T17:58:09.188Z,5.50
2023-02-25T18:00:40.217Z,4.03
2023-02-25T18:03:21.736Z,3.67
2023-02-25T18:06:04.381Z,4.25
2023-02-25T18:08:55.740Z,3.15
2023-02-25T18:11:34.598Z,5.10
2023-02-25T18:14:43.026Z,3.05
2023-02-25T18:19:48.522Z,3.85
2023-02-25T18:22:34.448Z,3.40
2023-02-25T18:25:08.695Z,2.30
2023-02-25T18:27:40.039Z,2.75
2023-02-25T18:30:22.892Z,3.25
2023-02-25T18:32:55.682Z,2.70
2023-02-25T18:35:27.909Z,3.65
2023-02-25T18:38:00.118Z,3.83
2023-02-25T18:40:39.538Z,4.47
2023-02-25T18:43:12.577Z,2.60
2023-02-25T18:45:43.058Z,2.85
2023-02-25T18:48:14.602Z,2.72
2023-02-25T18:50:50.250Z,4.10
2023-02-25T18:53:25.503Z,3.78
2023-02-25T18:55:58.339Z,2.97
2023-02-25T18:58:28.787Z,4.43
2023-02-25T19:01:01.254Z,2.63
2023-02-25T19:03:40.765Z,2.38
2023-02-25T19:06:12.632Z,2.97
2023-02-25T19:08:42.935Z,3.35
2023-02-25T19:11:21.470Z,4.28
2023-02-25T19:13:52.271Z,2.95
2023-02-25T19:16:25.049Z,3.50
2023-02-25T19:18:55.593Z,4.00
2023-02-25T19:21:26.126Z,2.03
2023-02-25T19:23:57.137Z,4.63
2023-02-25T19:26:27.786Z,2.22
2023-02-25T19:28:58.259Z,3.70
2023-02-25T19:31:29.533Z,3.78
2023-02-25T19:34:00.231Z,4.57
2023-02-25T19:36:30.812Z,4.45
2023-02-25T19:39:01.061Z,4.13
2023-02-25T19:41:32.224Z,1.75
2023-02-25T19:44:02.568Z,2.88
2023-02-25T19:46:32.987Z,3.28
2023-02-25T19:49:03.304Z,4.07
2023-02-25T19:51:33.914Z,3.75
2023-02-25T19:54:05.546Z,5.22
2023-02-25T19:56:37.754Z,2.28
2023-02-25T19:59:10.476Z,2.80
2023-02-25T20:01:43.633Z,2.47
2023-02-25T20:04:14.763Z,4.55
2023-02-25T20:06:45.623Z,3.55
2023-02-25T20:09:15.977Z,3.70
2023-02-25T20:11:48.427Z,2.20
2023-02-25T20:14:19.537Z,3.33
2023-02-25T20:16:50.095Z,2.28
2023-02-25T20:19:20.386Z,4.97
2023-02-25T20:21:51.319Z,2.92
2023-02-25T20:24:21.940Z,3.78
2023-02-25T20:26:52.699Z,4.22
2023-02-25T20:29:23.205Z,5.15
2023-02-25T20:31:54.081Z,4.25
2023-02-25T20:34:28.325Z,5.22
2023-02-25T20:37:23.581Z,3.78
2023-02-25T20:39:59.458Z,7.07
2023-02-25T20:42:33.490Z,6.80
2023-02-25T20:45:04.396Z,4.30
2023-02-25T20:47:38.086Z,7.10
2023-02-25T20:50:10.567Z,6.65
2023-02-25T20:52:41.334Z,7.00
2023-02-25T20:55:12.636Z,4.88
2023-02-25T20:57:43.272Z,6.10
2023-02-25T21:00:17.492Z,5.15
2023-02-25T21:02:48.315Z,6.38
2023-02-25T21:05:18.787Z,5.63
2023-02-25T21:07:49.605Z,3.88
2023-02-25T21:10:21.476Z,4.00
2023-02-25T21:12:56.091Z,4.78
2023-02-25T21:15:28.221Z,6.13
2023-02-25T21:17:58.915Z,6.93
2023-02-25T21:20:30.548Z,2.95
2023-02-25T21:23:00.960Z,5.47
2023-02-25T21:25:32.757Z,2.30
2023-02-25T21:28:03.693Z,3.83
2023-02-25T21:30:34.066Z,2.47
2023-02-25T21:33:05.504Z,2.90
2023-02-25T21:35:36.995Z,2.47
2023-02-25T21:38:08.168Z,2.72
2023-02-25T21:40:40.046Z,0.93
2023-02-25T21:43:11.111Z,2.08
2023-02-25T21:45:42.016Z,2.00
2023-02-25T21:48:13.480Z,5.72
2023-02-25T21:50:48.514Z,4.20
2023-02-25T21:53:20.143Z,2.03
2023-02-25T21:55:52.928Z,2.15
2023-02-25T21:58:25.544Z,1.33
2023-02-25T22:00:56.164Z,1.95
2023-02-25T22:03:26.854Z,0.95
2023-02-25T22:05:58.973Z,4.82
2023-02-25T22:08:29.769Z,1.38
2023-02-25T22:11:01.695Z,1.75
2023-02-25T22:13:37.981Z,1.40
2023-02-25T22:16:10.258Z,2.08
2023-02-25T22:18:41.660Z,4.40
2023-02-25T22:21:24.349Z,1.52
2023-02-25T22:23:56.772Z,1.25
2023-02-25T22:26:30.031Z,3.03
2023-02-25T22:29:03.450Z,3.92
2023-02-25T22:31:34.610Z,1.67
2023-02-25T22:34:05.350Z,3.50
2023-02-25T22:36:35.746Z,0.68
2023-02-25T22:39:11.535Z,1.75
2023-02-25T22:41:41.934Z,2.22
2023-02-25T22:44:12.268Z,2.15
2023-02-25T22:46:43.044Z,1.95
2023-02-25T22:49:14.253Z,2.15
2023-02-25T22:51:47.169Z,2.08
2023-02-25T22:54:22.751Z,1.75
2023-02-25T22:56:53.531Z,2.50
2023-02-25T22:59:23.843Z,1.23
2023-02-25T23:01:54.201Z,5.28
2023-02-25T23:04:24.488Z,0.68
2023-02-25T23:06:57.838Z,1.73
2023-02-25T23:09:28.173Z,1.45
2023-02-25T23:11:58.532Z,1.73
2023-02-25T23:14:30.109Z,2.65
2023-02-25T23:17:01.936Z,1.38
2023-02-25T23:19:32.404Z,4.63
2023-02-25T23:22:04.290Z,1.20
2023-02-25T23:24:37.935Z,1.45
2023-02-25T23:27:08.662Z,3.53
2023-02-25T23:29:40.589Z,3.08
2023-02-25T23:32:11.427Z,1.52
2023-02-25T23:34:42.489Z,2.55
2023-02-25T23:37:14.115Z,1.27
2023-02-25T23:39:45.686Z,2.03
2023-02-25T23:42:16.475Z,2.33
2023-02-25T23:44:46.999Z,1.85
2023-02-25T23:47:17.989Z,1.13
2023-02-25T23:49:49.585Z,3.17
2023-02-25T23:52:20.174Z,1.25
2023-02-25T23:54:50.456Z,2.42
2023-02-25T23:57:20.703Z,3.22
2023-02-25T23:59:51.019Z,1.42
